createdAt,value
2023-05-25T00:01:03.000Z,3.70
2023-05-25T00:03:31.989Z,3.70
2023-05-25T00:06:01.672Z,3.40
2023-05-25T00:08:29.713Z,3.58
2023-05-25T00:10:56.637Z,4.70
2023-05-25T00:13:23.281Z,3.47
2023-05-25T00:15:50.234Z,4.28
2023-05-25T00:18:16.965Z,3.33
2023-05-25T00:20:44.687Z,3.35
2023-05-25T00:23:11.485Z,3.97
2023-05-25T00:25:38.185Z,3.47
2023-05-25T00:28:05.002Z,4.22
2023-05-25T00:30:31.707Z,3.30
2023-05-25T00:32:59.878Z,3.38
2023-05-25T00:35:26.426Z,4.15
2023-05-25T00:37:53.038Z,3.78
2023-05-25T00:40:19.886Z,3.90
2023-05-25T00:42:47.400Z,3.67
2023-05-25T00:45:13.996Z,3.33
2023-05-25T00:47:41.652Z,4.03
2023-05-25T00:50:09.697Z,4.15
2023-05-25T00:52:36.813Z,4.13
2023-05-25T00:55:04.206Z,3.60
2023-05-25T00:57:34.274Z,4.63
2023-05-25T01:00:05.059Z,4.90
2023-05-25T01:02:33.584Z,3.97
2023-05-25T01:05:02.657Z,3.63
2023-05-25T01:07:31.216Z,4.10
2023-05-25T01:10:02.315Z,3.60
2023-05-25T01:12:30.418Z,3.90
2023-05-25T01:14:58.187Z,4.15
2023-05-25T01:17:25.529Z,3.65
2023-05-25T01:20:08.807Z,4.38
2023-05-25T01:22:57.812Z,3.83
2023-05-25T01:25:36.702Z,4.22
2023-05-25T01:28:11.316Z,4.20
2023-05-25T01:30:42.348Z,4.20
2023-05-25T01:33:11.046Z,4.35
2023-05-25T01:35:39.483Z,4.65
2023-05-25T01:38:07.070Z,4.43
2023-05-25T01:40:33.752Z,3.97
2023-05-25T01:43:00.496Z,4.28
2023-05-25T01:45:28.215Z,4.00
2023-05-25T01:48:09.418Z,4.18
2023-05-25T01:50:45.176Z,3.70
2023-05-25T01:53:34.459Z,3.88
2023-05-25T01:56:08.836Z,3.90
2023-05-25T01:58:40.929Z,4.50
2023-05-25T02:01:09.413Z,4.50
2023-05-25T02:03:41.722Z,3.75
2023-05-25T02:06:08.722Z,4.57
2023-05-25T02:08:35.607Z,4.40
2023-05-25T02:11:03.647Z,5.00
2023-05-25T02:13:30.317Z,4.45
2023-05-25T02:15:56.968Z,4.38
2023-05-25T02:18:23.806Z,4.43
2023-05-25T02:20:50.407Z,5.07
2023-05-25T02:23:18.968Z,4.68
2023-05-25T02:25:46.563Z,4.32
2023-05-25T02:28:14.414Z,4.20
2023-05-25T02:30:41.061Z,4.07
2023-05-25T02:33:07.722Z,4.00
2023-05-25T02:38:02.573Z,5.55
2023-05-25T02:40:29.188Z,4.13
2023-05-25T02:42:55.895Z,3.97
2023-05-25T02:45:22.490Z,4.32
2023-05-25T02:47:49.222Z,4.07
2023-05-25T02:50:15.769Z,4.85
2023-05-25T02:52:42.521Z,4.15
2023-05-25T02:55:13.618Z,4.47
2023-05-25T02:57:41.037Z,4.38
2023-05-25T03:00:08.024Z,4.28
2023-05-25T03:02:35.104Z,4.20
2023-05-25T03:05:04.094Z,4.20
2023-05-25T03:07:31.734Z,4.43
2023-05-25T03:09:59.404Z,5.05
2023-05-25T03:12:26.028Z,4.38
2023-05-25T03:14:52.516Z,4.57
2023-05-25T03:17:19.203Z,4.35
2023-05-25T03:19:46.060Z,4.38
2023-05-25T03:22:12.687Z,4.60
2023-05-25T03:24:41.832Z,4.55
2023-05-25T03:27:08.880Z,4.57
2023-05-25T03:29:35.570Z,4.80
2023-05-25T03:32:02.282Z,5.05
2023-05-25T03:34:29.819Z,4.50
2023-05-25T03:36:56.561Z,5.40
2023-05-25T03:39:23.254Z,5.13
2023-05-25T03:41:49.992Z,4.13
2023-05-25T03:44:16.766Z,4.35
2023-05-25T03:46:43.653Z,4.28
2023-05-25T03:49:13.854Z,4.68
2023-05-25T03:51:44.426Z,5.15
2023-05-25T03:54:12.177Z,4.55
2023-05-25T03:56:38.739Z,4.72
2023-05-25T03:59:05.274Z,4.82
2023-05-25T04:01:31.786Z,5.28
2023-05-25T04:03:58.538Z,4.80
2023-05-25T04:06:30.083Z,4.75
2023-05-25T04:08:57.947Z,4.90
2023-05-25T04:11:25.627Z,5.15
2023-05-25T04:13:52.080Z,5.72
2023-05-25T04:16:18.904Z,5.15
2023-05-25T04:18:45.551Z,5.72
2023-05-25T04:21:12.072Z,5.20
2023-05-25T04:23:38.615Z,5.40
2023-05-25T04:26:13.370Z,5.68
2023-05-25T04:28:43.156Z,5.25
2023-05-25T04:31:09.889Z,5.40
2023-05-25T04:33:38.946Z,6.05
2023-05-25T04:36:06.441Z,5.45
2023-05-25T04:38:33.360Z,6.38
2023-05-25T04:41:02.020Z,5.50
2023-05-25T04:43:29.996Z,5.72
2023-05-25T04:45:57.702Z,5.28
2023-05-25T04:48:24.741Z,5.93
2023-05-25T04:50:53.008Z,5.45
2023-05-25T04:53:20.442Z,5.50
2023-05-25T04:55:47.167Z,5.85
2023-05-25T04:58:14.760Z,6.32
2023-05-25T05:00:42.051Z,5.63
2023-05-25T05:03:08.989Z,5.45
2023-05-25T05:05:36.848Z,5.57
2023-05-25T05:08:03.774Z,5.05
2023-05-25T05:10:30.415Z,5.90
2023-05-25T05:12:57.051Z,5.75
2023-05-25T05:15:23.666Z,5.45
2023-05-25T05:17:50.255Z,5.93
2023-05-25T05:20:16.927Z,5.57
2023-05-25T05:22:43.793Z,5.97
2023-05-25T05:25:10.519Z,6.15
2023-05-25T05:27:37.137Z,5.72
2023-05-25T05:30:04.105Z,6.07
2023-05-25T05:32:30.776Z,5.75
2023-05-25T05:34:57.421Z,6.07
2023-05-25T05:37:23.979Z,5.72
2023-05-25T05:39:52.638Z,5.85
2023-05-25T05:42:19.296Z,5.80
2023-05-25T05:44:45.892Z,5.93
2023-05-25T05:47:12.390Z,6.60
2023-05-25T05:49:39.509Z,6.68
2023-05-25T05:52:06.806Z,7.18
2023-05-25T05:54:33.414Z,6.32
2023-05-25T05:56:59.927Z,6.95
2023-05-25T05:59:26.601Z,6.43
2023-05-25T06:01:53.226Z,6.57
2023-05-25T06:04:19.856Z,6.28
2023-05-25T06:06:47.043Z,6.38
2023-05-25T06:09:13.849Z,6.50
2023-05-25T06:11:40.683Z,5.75
2023-05-25T06:14:07.235Z,6.43
2023-05-25T06:16:33.959Z,5.85
2023-05-25T06:19:01.222Z,6.10
2023-05-25T06:21:27.853Z,6.75
2023-05-25T06:23:55.217Z,6.57
2023-05-25T06:26:22.106Z,5.50
2023-05-25T06:28:50.067Z,6.07
2023-05-25T06:31:16.764Z,6.88
2023-05-25T06:33:43.292Z,7.32
2023-05-25T06:36:11.027Z,7.28
2023-05-25T06:38:37.622Z,6.25
2023-05-25T06:41:05.547Z,6.40
2023-05-25T06:43:32.349Z,7.38
2023-05-25T06:45:59.539Z,6.97
2023-05-25T06:48:26.533Z,6.57
2023-05-25T06:50:53.110Z,6.88
2023-05-25T06:53:19.759Z,6.25
2023-05-25T06:55:46.441Z,7.28
2023-05-25T06:58:14.883Z,7.13
2023-05-25T07:00:41.613Z,8.48
2023-05-25T07:03:08.259Z,6.97
2023-05-25T07:05:34.842Z,6.47
2023-05-25T07:08:01.417Z,6.63
2023-05-25T07:10:28.045Z,6.85
2023-05-25T07:12:54.608Z,7.28
2023-05-25T07:15:22.775Z,6.93
2023-05-25T07:17:50.147Z,6.75
2023-05-25T07:20:16.858Z,7.05
2023-05-25T07:22:43.788Z,7.10
2023-05-25T07:25:10.520Z,7.68
2023-05-25T07:27:37.196Z,6.82
2023-05-25T07:30:04.736Z,7.13
2023-05-25T07:32:31.344Z,6.20
2023-05-25T07:34:58.037Z,6.43
2023-05-25T07:37:24.872Z,7.05
2023-05-25T07:39:51.603Z,7.15
2023-05-25T07:42:21.806Z,6.75
2023-05-25T07:44:49.122Z,6.55
2023-05-25T07:47:15.986Z,6.32
2023-05-25T07:49:42.634Z,6.45
2023-05-25T07:52:09.283Z,6.93
2023-05-25T07:54:40.091Z,6.30
2023-05-25T07:57:07.819Z,7.13
2023-05-25T07:59:34.603Z,6.43
2023-05-25T08:02:01.247Z,5.63
2023-05-25T08:04:28.049Z,5.78
2023-05-25T08:06:54.684Z,6.00
2023-05-25T08:09:21.504Z,5.57
2023-05-25T08:11:47.977Z,5.70
2023-05-25T08:14:14.609Z,6.25
2023-05-25T08:16:41.555Z,5.78
2023-05-25T08:19:08.167Z,5.53
2023-05-25T08:21:35.219Z,5.70
2023-05-25T08:24:04.283Z,5.30
2023-05-25T08:26:45.378Z,5.35
2023-05-25T08:29:18.508Z,6.65
2023-05-25T08:31:49.479Z,6.07
2023-05-25T08:34:16.904Z,6.00
2023-05-25T08:39:35.896Z,5.97
2023-05-25T08:42:03.892Z,5.78
2023-05-25T08:44:30.565Z,6.68
2023-05-25T08:46:58.138Z,5.68
2023-05-25T08:49:26.522Z,6.03
2023-05-25T08:51:55.417Z,6.63
2023-05-25T08:54:30.239Z,6.45
2023-05-25T08:57:03.517Z,6.40
2023-05-25T08:59:42.234Z,5.78
2023-05-25T09:02:32.372Z,5.85
2023-05-25T09:05:01.732Z,6.30
2023-05-25T09:07:29.618Z,5.60
2023-05-25T09:09:57.809Z,4.93
2023-05-25T09:12:24.487Z,5.10
2023-05-25T09:14:53.560Z,5.47
2023-05-25T09:17:21.202Z,6.25
2023-05-25T09:19:47.993Z,5.45
2023-05-25T09:22:16.553Z,5.32
2023-05-25T09:24:44.833Z,5.80
2023-05-25T09:27:13.425Z,5.38
2023-05-25T09:29:40.072Z,5.57
2023-05-25T09:32:07.193Z,5.10
2023-05-25T09:34:34.154Z,4.60
2023-05-25T09:37:03.900Z,4.57
2023-05-25T09:39:30.999Z,4.22
2023-05-25T09:41:59.285Z,4.53
2023-05-25T09:44:27.006Z,4.13
2023-05-25T09:46:53.691Z,4.57
2023-05-25T09:49:21.303Z,3.95
2023-05-25T09:51:48.502Z,4.25
2023-05-25T09:54:15.728Z,3.90
2023-05-25T09:56:42.598Z,4.22
2023-05-25T09:59:09.356Z,3.67
2023-05-25T10:01:36.784Z,3.83
2023-05-25T10:04:04.733Z,3.65
2023-05-25T10:06:35.116Z,4.05
2023-05-25T10:09:03.419Z,3.92
2023-05-25T10:11:31.498Z,3.67
2023-05-25T10:14:03.835Z,4.05
2023-05-25T10:16:33.480Z,4.05
2023-05-25T10:19:22.032Z,3.50
2023-05-25T10:21:59.686Z,4.22
2023-05-25T10:24:39.194Z,4.15
2023-05-25T10:27:22.423Z,3.38
2023-05-25T10:29:57.283Z,3.50
2023-05-25T10:32:24.797Z,3.70
2023-05-25T10:34:52.459Z,3.35
2023-05-25T10:37:19.292Z,3.15
2023-05-25T10:39:46.343Z,3.28
2023-05-25T10:42:13.329Z,4.03
2023-05-25T10:44:43.485Z,3.60
2023-05-25T10:47:10.792Z,3.42
2023-05-25T10:49:55.525Z,3.20
2023-05-25T10:52:26.565Z,4.07
2023-05-25T10:54:56.594Z,3.60
2023-05-25T10:57:24.208Z,3.75
2023-05-25T10:59:52.177Z,3.60
2023-05-25T11:02:24.897Z,3.80
2023-05-25T11:05:30.875Z,3.65
2023-05-25T11:07:59.130Z,3.35
2023-05-25T11:10:53.082Z,3.63
2023-05-25T11:13:32.051Z,3.33
2023-05-25T11:16:09.326Z,2.95
2023-05-25T11:18:41.383Z,3.35
2023-05-25T11:21:16.795Z,3.43
2023-05-25T11:24:04.378Z,3.40
2023-05-25T11:26:33.625Z,3.60
2023-05-25T11:29:02.109Z,3.70
2023-05-25T11:31:36.435Z,3.67
2023-05-25T11:34:06.262Z,3.33
2023-05-25T11:36:36.921Z,4.00
2023-05-25T11:39:11.665Z,3.63
2023-05-25T11:41:52.611Z,3.67
2023-05-25T11:44:30.075Z,3.80
2023-05-25T11:47:01.623Z,4.32
2023-05-25T11:49:28.519Z,3.30
2023-05-25T11:51:57.072Z,3.92
2023-05-25T11:54:28.800Z,3.50
2023-05-25T11:56:59.371Z,3.97
2023-05-25T11:59:29.799Z,3.70
2023-05-25T12:01:59.601Z,3.67
2023-05-25T12:04:26.918Z,3.15
2023-05-25T12:07:01.404Z,3.95
2023-05-25T12:09:28.065Z,3.67
2023-05-25T12:11:54.830Z,3.88
2023-05-25T12:14:21.688Z,3.45
2023-05-25T12:16:48.503Z,3.92
2023-05-25T12:19:16.952Z,3.58
2023-05-25T12:21:43.823Z,3.58
2023-05-25T12:24:14.504Z,3.53
2023-05-25T12:26:49.433Z,3.50
2023-05-25T12:29:16.487Z,3.85
2023-05-25T12:31:43.131Z,4.13
2023-05-25T12:34:15.322Z,4.00
2023-05-25T12:36:46.458Z,3.55
2023-05-25T12:39:14.655Z,3.63
2023-05-25T12:41:54.225Z,3.97
2023-05-25T12:44:37.562Z,4.18
2023-05-25T12:47:19.931Z,4.00
2023-05-25T12:49:51.337Z,3.55
2023-05-25T12:52:36.829Z,4.15
2023-05-25T12:55:29.073Z,4.30
2023-05-25T12:58:01.440Z,4.10
2023-05-25T13:00:36.085Z,4.28
2023-05-25T13:03:03.645Z,3.97
2023-05-25T13:05:36.936Z,3.75
2023-05-25T13:08:05.335Z,4.45
2023-05-25T13:10:33.043Z,3.67
2023-05-25T13:13:00.702Z,3.75
2023-05-25T13:15:27.649Z,3.80
2023-05-25T13:17:56.407Z,3.85
2023-05-25T13:20:25.535Z,4.05
2023-05-25T13:22:53.583Z,4.80
2023-05-25T13:25:22.395Z,3.85
2023-05-25T13:27:51.057Z,3.90
2023-05-25T13:30:17.980Z,4.10
2023-05-25T13:32:45.018Z,3.72
2023-05-25T13:35:18.626Z,4.38
2023-05-25T13:37:48.027Z,4.28
2023-05-25T13:40:14.916Z,4.00
2023-05-25T13:42:41.498Z,4.50
2023-05-25T13:45:08.792Z,4.50
2023-05-25T13:47:35.517Z,3.90
2023-05-25T13:50:02.275Z,4.28
2023-05-25T13:52:28.854Z,4.53
2023-05-25T13:54:55.488Z,4.80
2023-05-25T13:57:22.620Z,4.00
2023-05-25T13:59:49.435Z,4.18
2023-05-25T14:02:16.551Z,4.45
2023-05-25T14:04:43.189Z,4.07
2023-05-25T14:07:09.778Z,3.72
2023-05-25T14:09:36.619Z,4.07
2023-05-25T14:12:03.400Z,3.97
2023-05-25T14:14:32.458Z,4.35
2023-05-25T14:17:00.261Z,4.05
2023-05-25T14:19:27.122Z,3.90
2023-05-25T14:22:11.180Z,4.28
2023-05-25T14:24:38.924Z,4.32
2023-05-25T14:27:07.214Z,4.82
2023-05-25T14:29:34.282Z,4.18
2023-05-25T14:32:01.410Z,4.28
2023-05-25T14:34:28.646Z,3.95
2023-05-25T14:36:55.392Z,4.57
2023-05-25T14:39:22.022Z,4.28
2023-05-25T14:41:48.611Z,4.25
2023-05-25T14:44:15.354Z,4.57
2023-05-25T14:46:41.995Z,3.88
2023-05-25T14:49:08.750Z,4.07
2023-05-25T14:51:35.871Z,4.05
2023-05-25T14:54:05.664Z,3.30
2023-05-25T14:56:32.442Z,4.13
2023-05-25T14:58:58.962Z,3.90
2023-05-25T15:01:25.778Z,4.00
2023-05-25T15:03:52.641Z,4.72
2023-05-25T15:06:19.604Z,4.22
2023-05-25T15:08:46.413Z,4.50
2023-05-25T15:11:13.059Z,3.97
2023-05-25T15:13:40.950Z,4.30
2023-05-25T15:16:11.302Z,4.65
2023-05-25T15:18:37.912Z,3.80
2023-05-25T15:21:04.606Z,3.72
2023-05-25T15:23:32.167Z,3.78
2023-05-25T15:26:03.181Z,3.75
2023-05-25T15:28:35.652Z,4.30
2023-05-25T15:31:03.427Z,4.78
2023-05-25T15:33:48.360Z,4.93
2023-05-25T15:36:18.512Z,4.43
2023-05-25T15:38:48.928Z,4.25
2023-05-25T15:41:18.872Z,3.53
2023-05-25T15:43:52.574Z,3.72
2023-05-25T15:46:19.487Z,4.88
2023-05-25T15:48:46.061Z,3.97
2023-05-25T15:51:12.718Z,4.35
2023-05-25T15:53:39.247Z,4.43
2023-05-25T15:56:05.944Z,5.43
2023-05-25T15:58:34.517Z,4.35
2023-05-25T16:01:01.565Z,4.05
2023-05-25T16:03:28.634Z,4.00
2023-05-25T16:05:55.800Z,4.00
2023-05-25T16:08:22.576Z,4.35
2023-05-25T16:10:49.395Z,4.45
2023-05-25T16:13:16.220Z,4.13
2023-05-25T16:15:42.989Z,4.63
2023-05-25T16:18:09.702Z,4.03
2023-05-25T16:20:36.633Z,4.63
2023-05-25T16:23:03.328Z,5.00
2023-05-25T16:25:29.966Z,4.30
2023-05-25T16:27:56.642Z,4.43
2023-05-25T16:30:23.762Z,4.32
2023-05-25T16:32:50.687Z,4.43
2023-05-25T16:35:17.343Z,3.67
2023-05-25T16:37:44.758Z,4.20
2023-05-25T16:40:11.612Z,4.68
2023-05-25T16:42:38.199Z,4.60
2023-05-25T16:45:05.376Z,4.80
2023-05-25T16:47:31.921Z,4.93
2023-05-25T16:49:58.554Z,4.15
2023-05-25T16:52:25.085Z,4.68
2023-05-25T16:54:51.588Z,4.13
2023-05-25T16:57:18.280Z,4.35
2023-05-25T16:59:45.639Z,5.07
2023-05-25T17:02:12.245Z,4.60
2023-05-25T17:04:38.870Z,5.10
2023-05-25T17:07:06.341Z,4.07
2023-05-25T17:09:33.181Z,5.32
2023-05-25T17:12:01.648Z,4.88
2023-05-25T17:14:28.310Z,4.15
2023-05-25T17:16:54.996Z,5.10
2023-05-25T17:19:24.756Z,4.90
2023-05-25T17:29:25.879Z,4.78
2023-05-25T17:31:52.416Z,4.40
2023-05-25T17:34:18.934Z,4.80
2023-05-25T17:36:45.365Z,4.30
2023-05-25T17:39:11.851Z,4.68
2023-05-25T17:41:38.328Z,4.60
2023-05-25T17:44:04.812Z,4.78
2023-05-25T17:46:31.358Z,5.22
2023-05-25T17:48:57.968Z,5.07
2023-05-25T17:51:24.371Z,5.43
2023-05-25T17:53:50.968Z,5.07
2023-05-25T17:56:17.373Z,5.28
2023-05-25T17:58:47.317Z,5.30
2023-05-25T18:01:15.142Z,5.18
2023-05-25T18:03:42.093Z,5.13
2023-05-25T18:06:08.570Z,5.00
2023-05-25T18:08:35.034Z,5.15
2023-05-25T18:11:01.602Z,5.07
2023-05-25T18:13:28.085Z,4.97
2023-05-25T18:15:54.526Z,5.30
2023-05-25T18:18:23.147Z,6.05
2023-05-25T18:20:49.625Z,4.90
2023-05-25T18:23:16.317Z,6.03
2023-05-25T18:25:42.804Z,5.20
2023-05-25T18:28:09.449Z,5.20
2023-05-25T18:30:35.845Z,4.72
2023-05-25T18:33:03.408Z,4.75
2023-05-25T18:35:29.850Z,4.95
2023-05-25T18:37:56.364Z,5.47
2023-05-25T18:40:23.197Z,5.70
2023-05-25T18:42:50.776Z,5.10
2023-05-25T18:45:17.218Z,4.57
2023-05-25T18:47:44.107Z,4.63
2023-05-25T18:50:11.841Z,5.10
2023-05-25T18:52:38.606Z,5.53
2023-05-25T18:55:06.231Z,4.95
2023-05-25T18:57:32.984Z,4.97
2023-05-25T18:59:59.522Z,4.97
2023-05-25T19:02:26.403Z,5.53
2023-05-25T19:04:53.128Z,5.13
2023-05-25T19:07:19.581Z,5.57
2023-05-25T19:09:47.960Z,5.53
2023-05-25T19:12:15.411Z,5.40
2023-05-25T19:14:42.056Z,4.85
2023-05-25T19:17:08.740Z,4.68
2023-05-25T19:19:35.236Z,5.10
2023-05-25T19:22:01.641Z,4.95
2023-05-25T19:24:28.062Z,5.55
2023-05-25T19:26:54.550Z,4.85
2023-05-25T19:29:21.148Z,4.53
2023-05-25T19:31:47.551Z,4.80
2023-05-25T19:34:14.156Z,4.63
2023-05-25T19:36:40.653Z,5.30
2023-05-25T19:39:07.197Z,4.88
2023-05-25T19:41:33.619Z,4.40
2023-05-25T19:44:00.161Z,5.18
2023-05-25T19:46:26.666Z,4.95
2023-05-25T19:48:53.377Z,4.57
2023-05-25T20:01:52.697Z,3.97
2023-05-25T20:04:19.206Z,3.78
2023-05-25T20:06:45.917Z,4.10
2023-05-25T20:09:13.987Z,4.45
2023-05-25T20:11:41.539Z,5.32
2023-05-25T20:14:08.014Z,4.50
2023-05-25T20:16:34.728Z,4.43
2023-05-25T20:19:01.973Z,4.88
2023-05-25T20:21:28.908Z,4.10
2023-05-25T20:23:56.763Z,4.10
2023-05-25T20:26:23.317Z,3.67
2023-05-25T20:28:49.698Z,4.07
2023-05-25T20:31:16.438Z,4.57
2023-05-25T20:33:43.169Z,5.00
2023-05-25T20:36:09.920Z,4.45
2023-05-25T20:41:36.419Z,4.07
2023-05-25T20:44:06.368Z,4.35
2023-05-25T20:46:34.130Z,4.30
2023-05-25T20:49:01.036Z,4.25
2023-05-25T20:51:27.558Z,4.60
2023-05-25T20:53:54.245Z,4.53
2023-05-25T20:56:21.535Z,4.35
2023-05-25T20:58:48.158Z,3.95
2023-05-25T21:01:15.655Z,3.90
2023-05-25T21:03:42.338Z,4.20
2023-05-25T21:06:09.006Z,4.57
2023-05-25T21:08:35.613Z,4.50
2023-05-25T21:11:02.535Z,4.03
2023-05-25T21:13:29.086Z,3.88
2023-05-25T21:15:55.859Z,3.55
2023-05-25T21:18:22.487Z,3.95
2023-05-25T21:20:49.226Z,4.50
2023-05-25T21:23:15.761Z,4.30
2023-05-25T21:25:42.375Z,4.30
2023-05-25T21:28:10.346Z,3.92
2023-05-25T21:30:36.836Z,4.32
2023-05-25T21:33:03.450Z,3.70
2023-05-25T21:35:29.883Z,3.88
2023-05-25T21:37:56.510Z,3.55
2023-05-25T21:40:22.973Z,4.15
2023-05-25T21:42:51.249Z,4.20
2023-05-25T21:45:17.907Z,4.18
2023-05-25T21:47:44.500Z,4.03
2023-05-25T21:50:11.088Z,5.30
2023-05-25T21:52:37.729Z,4.57
2023-05-25T21:55:04.794Z,3.85
2023-05-25T21:57:31.288Z,4.18
2023-05-25T21:59:57.728Z,4.57
2023-05-25T22:02:24.327Z,4.57
2023-05-25T22:04:51.038Z,4.07
2023-05-25T22:07:17.485Z,3.60
2023-05-25T22:09:44.044Z,3.97
2023-05-25T22:12:12.734Z,4.10
2023-05-25T22:14:39.399Z,4.45
2023-05-25T22:17:06.151Z,3.80
2023-05-25T22:19:32.784Z,4.10
2023-05-25T22:21:59.359Z,4.57
2023-05-25T22:24:25.919Z,4.75
2023-05-25T22:26:52.475Z,4.50
2023-05-25T22:29:19.037Z,4.40
2023-05-25T22:31:45.946Z,4.35
2023-05-25T22:34:12.497Z,4.35
2023-05-25T22:36:38.993Z,4.75
2023-05-25T22:39:05.579Z,4.72
2023-05-25T22:41:32.098Z,4.57
2023-05-25T22:43:58.703Z,4.50
2023-05-25T22:46:25.259Z,3.97
2023-05-25T22:48:51.954Z,4.43
2023-05-25T22:51:18.535Z,4.75
2023-05-25T22:53:45.032Z,5.18
2023-05-25T22:56:11.711Z,4.03
2023-05-25T22:58:38.596Z,4.43
2023-05-25T23:01:05.402Z,4.80
2023-05-25T23:03:32.133Z,4.57
2023-05-25T23:05:58.808Z,4.18
2023-05-25T23:08:25.521Z,4.35
2023-05-25T23:10:52.063Z,4.88
2023-05-25T23:13:19.274Z,4.55
2023-05-25T23:15:47.582Z,3.75
2023-05-25T23:18:14.361Z,4.68
2023-05-25T23:20:41.077Z,4.28
2023-05-25T23:23:07.748Z,4.03
2023-05-25T23:25:34.345Z,4.18
2023-05-25T23:28:00.851Z,4.55
2023-05-25T23:30:27.460Z,5.05
2023-05-25T23:32:54.095Z,4.80
2023-05-25T23:35:22.390Z,4.53
2023-05-25T23:37:50.164Z,4.35
2023-05-25T23:40:16.647Z,4.70
2023-05-25T23:42:43.899Z,4.43
2023-05-25T23:45:10.809Z,4.88
2023-05-25T23:47:37.336Z,4.95
2023-05-25T23:50:04.191Z,4.47
2023-05-25T23:52:30.914Z,4.20
2023-05-25T23:54:57.447Z,5.00
2023-05-25T23:57:23.955Z,4.75
2023-05-25T23:59:50.660Z,4.25
